createdAt,value
2023-05-22T00:03:24.446Z,99303.19
2023-05-22T00:08:29.617Z,99304.25
2023-05-22T00:13:31.825Z,99343.88
2023-05-22T00:18:33.430Z,99320.09
2023-05-22T00:23:35.350Z,99324.66
2023-05-22T00:28:36.928Z,99331.09
2023-05-22T00:33:38.572Z,99311.22
2023-05-22T00:38:40.226Z,99307.69
2023-05-22T00:43:41.849Z,99307.09
2023-05-22T00:48:43.471Z,99316.66
2023-05-22T00:53:46.649Z,99338.38
2023-05-22T00:58:48.524Z,99340.84
2023-05-22T01:03:50.935Z,99355.56
2023-05-22T01:08:52.589Z,99361.75
2023-05-22T01:14:23.493Z,99350.44
2023-05-22T01:19:41.465Z,99410.72
2023-05-22T01:24:58.183Z,99374.59
2023-05-22T01:30:35.816Z,99355.31
2023-05-22T01:35:41.041Z,99396.03
2023-05-22T01:40:44.723Z,99389.38
2023-05-22T01:45:46.405Z,99428.91
2023-05-22T01:50:51.551Z,99456.63
2023-05-22T01:56:05.442Z,99396.59
2023-05-22T02:01:10.226Z,99428.47
2023-05-22T02:06:14.480Z,99453.06
2023-05-22T02:11:17.352Z,99437.88
2023-05-22T02:16:21.802Z,99414.72
2023-05-22T02:21:23.612Z,99436.69
2023-05-22T02:26:25.561Z,99447.16
2023-05-22T02:31:27.239Z,99452.47
2023-05-22T02:36:30.978Z,99450.59
2023-05-22T02:41:32.716Z,99452.72
2023-05-22T02:46:34.342Z,99479.81
2023-05-22T02:51:35.975Z,99474.78
2023-05-22T02:56:37.637Z,99478.78
2023-05-22T03:01:39.756Z,99467.16
2023-05-22T03:06:41.860Z,99490.16
2023-05-22T03:11:43.496Z,99502.28
2023-05-22T03:16:45.420Z,99446.03
2023-05-22T03:21:48.555Z,99494.66
2023-05-22T03:26:50.183Z,99492.22
2023-05-22T03:31:51.838Z,99491.53
2023-05-22T03:36:53.530Z,99452.41
2023-05-22T03:41:55.140Z,99467.09
2023-05-22T03:46:56.835Z,99473.44
2023-05-22T03:51:58.393Z,99439.22
2023-05-22T03:56:59.980Z,99478.59
2023-05-22T04:02:01.753Z,99483.56
2023-05-22T04:07:03.465Z,99491.72
2023-05-22T04:12:05.559Z,99480.91
2023-05-22T04:17:07.264Z,99476.47
2023-05-22T04:22:08.907Z,99491.56
2023-05-22T04:27:10.524Z,99472.94
2023-05-22T04:32:12.121Z,99478.78
2023-05-22T04:37:15.237Z,99482.28
2023-05-22T04:42:17.466Z,99502.88
2023-05-22T04:47:19.563Z,99483.50
2023-05-22T04:52:21.889Z,99490.59
2023-05-22T04:57:25.616Z,99496.09
2023-05-22T05:02:27.412Z,99528.06
2023-05-22T05:07:29.500Z,99513.69
2023-05-22T05:12:31.106Z,99442.50
2023-05-22T05:17:32.742Z,99501.22
2023-05-22T05:22:34.645Z,99478.50
2023-05-22T05:27:36.210Z,99516.78
2023-05-22T05:32:38.406Z,99486.91
2023-05-22T05:37:40.024Z,99507.91
2023-05-22T05:42:41.585Z,99462.88
2023-05-22T05:47:43.366Z,99411.81
2023-05-22T05:52:45.298Z,99429.88
2023-05-22T05:57:46.937Z,99452.91
2023-05-22T06:02:50.715Z,99469.88
2023-05-22T06:07:52.961Z,99462.97
2023-05-22T06:12:54.519Z,99459.13
2023-05-22T06:17:56.325Z,99464.38
2023-05-22T06:22:57.973Z,99444.31
2023-05-22T06:27:59.558Z,99472.78
2023-05-22T06:33:01.266Z,99476.03
2023-05-22T06:38:03.002Z,99481.41
2023-05-22T06:43:04.617Z,99467.38
2023-05-22T06:48:06.684Z,99420.28
2023-05-22T06:53:08.411Z,99466.25
2023-05-22T06:58:10.224Z,99494.31
2023-05-22T07:03:12.127Z,99433.81
2023-05-22T07:08:13.933Z,99431.41
2023-05-22T07:13:15.629Z,99410.72
2023-05-22T07:18:17.376Z,99431.03
2023-05-22T07:23:19.029Z,99418.22
2023-05-22T07:28:20.711Z,99436.81
2023-05-22T07:33:22.339Z,99430.50
2023-05-22T07:38:23.998Z,99407.00
2023-05-22T07:43:25.707Z,99405.72
2023-05-22T07:48:27.357Z,99400.81
2023-05-22T07:53:29.100Z,99409.13
2023-05-22T07:58:30.760Z,99413.81
2023-05-22T08:03:32.555Z,99385.00
2023-05-22T08:08:34.697Z,99423.34
2023-05-22T08:13:38.813Z,99390.38
2023-05-22T08:18:40.890Z,99407.25
2023-05-22T08:23:42.534Z,99354.47
2023-05-22T08:28:44.547Z,99377.88
2023-05-22T08:33:46.245Z,99343.34
2023-05-22T08:38:47.872Z,99371.44
2023-05-22T08:43:49.758Z,99353.03
2023-05-22T08:48:52.156Z,99345.19
2023-05-22T08:53:58.850Z,99358.19
2023-05-22T09:04:10.137Z,99336.31
2023-05-22T09:09:12.525Z,99361.13
2023-05-22T09:14:16.095Z,99356.75
2023-05-22T09:19:17.906Z,99332.47
2023-05-22T09:24:19.644Z,99332.75
2023-05-22T09:29:22.453Z,99348.75
2023-05-22T09:34:28.934Z,99260.19
2023-05-22T09:39:44.171Z,99229.59
2023-05-22T09:44:50.134Z,99263.13
2023-05-22T09:49:51.851Z,99238.75
2023-05-22T09:54:56.710Z,99282.91
2023-05-22T10:00:00.328Z,99241.97
2023-05-22T10:05:06.911Z,99205.69
2023-05-22T10:10:11.464Z,99225.41
2023-05-22T10:15:13.939Z,99184.25
2023-05-22T10:20:16.879Z,99203.75
2023-05-22T10:25:18.555Z,99169.03
2023-05-22T10:30:29.246Z,99176.84
2023-05-22T10:35:52.774Z,99153.78
2023-05-22T10:40:55.788Z,99159.34
2023-05-22T10:46:04.523Z,99126.97
2023-05-22T10:51:09.106Z,99095.34
2023-05-22T10:56:16.384Z,99098.66
2023-05-22T11:06:36.171Z,99218.97
2023-05-22T11:11:37.851Z,99149.63
2023-05-22T11:16:39.839Z,99194.06
2023-05-22T11:21:46.423Z,99131.28
2023-05-22T11:27:02.585Z,99158.56
2023-05-22T11:32:04.640Z,99126.75
2023-05-22T11:37:06.330Z,99140.31
2023-05-22T11:42:07.990Z,99140.78
2023-05-22T11:47:09.638Z,99099.75
2023-05-22T11:52:11.219Z,99069.13
2023-05-22T11:57:13.571Z,99088.72
2023-05-22T12:02:21.321Z,99112.19
2023-05-22T12:07:23.669Z,99106.88
2023-05-22T12:12:25.988Z,99122.19
2023-05-22T12:17:28.743Z,99116.44
2023-05-22T12:22:30.406Z,99111.44
2023-05-22T12:27:33.560Z,99081.41
2023-05-22T12:32:35.558Z,99067.59
2023-05-22T12:37:37.169Z,99099.47
2023-05-22T12:42:38.994Z,99082.03
2023-05-22T12:47:40.703Z,99080.78
2023-05-22T12:52:42.423Z,99139.19
2023-05-22T12:57:44.101Z,99069.53
2023-05-22T13:02:46.006Z,99136.81
2023-05-22T13:07:47.857Z,99112.09
2023-05-22T13:12:51.586Z,99096.13
2023-05-22T13:17:53.361Z,99111.03
2023-05-22T13:22:55.082Z,99095.16
2023-05-22T13:27:58.830Z,99115.09
2023-05-22T13:33:00.529Z,99068.72
2023-05-22T13:38:02.266Z,99036.66
2023-05-22T13:43:03.860Z,99026.78
2023-05-22T13:48:05.684Z,99040.72
2023-05-22T13:53:25.782Z,99042.09
2023-05-22T13:58:27.428Z,99043.53
2023-05-22T14:03:29.106Z,99035.41
2023-05-22T14:08:30.964Z,99034.59
2023-05-22T14:13:32.694Z,99068.75
2023-05-22T14:18:34.372Z,99066.50
2023-05-22T14:23:35.955Z,99079.06
2023-05-22T14:28:37.584Z,99070.50
2023-05-22T14:33:39.182Z,99023.63
2023-05-22T14:38:40.970Z,99047.03
2023-05-22T14:43:42.676Z,99069.16
2023-05-22T14:48:44.291Z,99052.28
2023-05-22T14:53:46.049Z,99018.75
2023-05-22T14:58:47.700Z,99088.13
2023-05-22T15:05:26.949Z,99096.72
2023-05-22T15:10:28.741Z,99129.06
2023-05-22T15:15:30.472Z,99120.88
2023-05-22T15:20:32.514Z,99060.38
2023-05-22T15:25:36.517Z,99111.75
2023-05-22T15:30:39.127Z,99066.66
2023-05-22T15:35:42.009Z,99090.19
2023-05-22T15:40:44.486Z,99099.47
2023-05-22T15:45:49.442Z,99183.59
2023-05-22T15:50:51.211Z,99226.84
2023-05-22T15:55:52.951Z,99227.41
2023-05-22T16:00:58.107Z,99248.22
2023-05-22T16:05:59.840Z,99278.16
2023-05-22T16:11:01.792Z,99336.09
2023-05-22T16:16:05.951Z,99366.94
2023-05-22T16:21:07.695Z,99383.28
2023-05-22T16:26:09.379Z,99375.13
2023-05-22T16:31:12.880Z,99377.84
2023-05-22T16:36:14.720Z,99372.44
2023-05-22T16:41:16.396Z,99357.47
2023-05-22T16:46:18.535Z,99349.13
2023-05-22T16:51:20.617Z,99331.59
2023-05-22T16:56:22.747Z,99347.41
2023-05-22T17:01:24.491Z,99370.47
2023-05-22T17:06:27.687Z,99360.09
2023-05-22T17:11:29.428Z,99355.56
2023-05-22T17:16:31.592Z,99376.31
2023-05-22T17:21:33.286Z,99405.97
2023-05-22T17:26:34.976Z,99361.19
2023-05-22T17:31:39.033Z,99399.84
2023-05-22T17:36:43.288Z,99400.22
2023-05-22T17:41:46.308Z,99319.88
2023-05-22T17:46:49.366Z,99336.56
2023-05-22T17:51:51.028Z,99342.22
2023-05-22T17:56:52.703Z,99417.88
2023-05-22T18:01:54.387Z,99414.25
2023-05-22T18:06:56.058Z,99374.66
2023-05-22T18:11:59.194Z,99362.69
2023-05-22T18:17:00.967Z,99397.59
2023-05-22T18:22:02.564Z,99395.41
2023-05-22T18:27:04.530Z,99393.03
2023-05-22T18:32:09.407Z,99367.47
2023-05-22T18:37:11.089Z,99327.81
2023-05-22T18:42:13.288Z,99387.66
2023-05-22T18:47:14.935Z,99418.22
2023-05-22T18:52:16.649Z,99373.09
2023-05-22T18:57:18.233Z,99338.88
2023-05-22T19:02:21.958Z,99295.38
2023-05-22T19:07:23.789Z,99329.03
2023-05-22T19:12:28.321Z,99349.69
2023-05-22T19:17:29.986Z,99352.75
2023-05-22T19:22:31.958Z,99433.38
2023-05-22T19:27:33.620Z,99405.66
2023-05-22T19:32:35.249Z,99462.78
2023-05-22T19:37:37.240Z,99432.94
2023-05-22T19:42:39.907Z,99360.28
2023-05-22T19:47:41.559Z,99466.75
2023-05-22T19:52:43.549Z,99499.47
2023-05-22T19:57:45.286Z,99509.38
2023-05-22T20:02:47.000Z,99509.44
2023-05-22T20:07:48.903Z,99469.63
2023-05-22T20:12:54.622Z,99453.81
2023-05-22T20:17:57.870Z,99479.78
2023-05-22T20:22:59.652Z,99466.34
2023-05-22T20:28:02.845Z,99540.38
2023-05-22T20:33:04.529Z,99518.94
2023-05-22T20:38:08.809Z,99516.38
2023-05-22T20:43:13.934Z,99514.00
2023-05-22T20:48:16.653Z,99474.97
2023-05-22T20:53:18.330Z,99534.22
2023-05-22T20:58:20.117Z,99486.44
2023-05-22T21:03:23.454Z,99447.25
2023-05-22T21:08:26.578Z,99443.41
2023-05-22T21:13:28.327Z,99531.84
2023-05-22T21:18:30.049Z,99594.56
2023-05-22T21:23:31.767Z,99548.56
2023-05-22T21:28:33.436Z,99550.72
2023-05-22T21:33:35.246Z,99594.19
2023-05-22T21:38:36.897Z,99512.75
2023-05-22T21:43:39.091Z,99504.75
2023-05-22T21:48:40.916Z,99506.88
2023-05-22T21:53:46.677Z,99512.59
2023-05-22T21:58:48.597Z,99508.84
2023-05-22T22:03:50.380Z,99546.94
2023-05-22T22:08:53.258Z,99524.44
2023-05-22T22:13:55.187Z,99566.78
2023-05-22T22:18:58.146Z,99623.50
2023-05-22T22:24:00.060Z,99568.91
2023-05-22T22:29:01.784Z,99562.75
2023-05-22T22:34:05.643Z,99573.00
2023-05-22T22:39:07.457Z,99567.91
2023-05-22T22:44:09.335Z,99543.97
2023-05-22T22:49:11.082Z,99589.94
2023-05-22T22:54:15.281Z,99591.47
2023-05-22T22:59:17.346Z,99575.47
2023-05-22T23:04:19.230Z,99632.34
2023-05-22T23:09:20.980Z,99634.63
2023-05-22T23:14:22.794Z,99663.47
2023-05-22T23:19:24.702Z,99610.69
2023-05-22T23:24:26.447Z,99594.63
2023-05-22T23:29:28.170Z,99660.09
2023-05-22T23:34:29.868Z,99572.84
2023-05-22T23:39:31.596Z,99606.81
2023-05-22T23:44:33.361Z,99601.44
2023-05-22T23:49:35.154Z,99620.38
2023-05-22T23:54:36.894Z,99579.44
2023-05-22T23:59:39.157Z,99588.25
